sensor_id;sensor_type;location;lat;lon;timestamp;P1;durP1;ratioP1;P2;durP2;ratioP2
71095;SDS011;58753;49.440;11.126;2022-09-17T00:01:58;2.20;;;0.50;;
71095;SDS011;58753;49.440;11.126;2022-09-17T00:04:23;1.90;;;0.60;;
71095;SDS011;58753;49.440;11.126;2022-09-17T00:06:48;2.77;;;0.50;;
71095;SDS011;58753;49.440;11.126;2022-09-17T00:09:14;1.25;;;0.50;;
71095;SDS011;58753;49.440;11.126;2022-09-17T00:11:41;2.70;;;0.57;;
71095;SDS011;58753;49.440;11.126;2022-09-17T00:14:07;1.88;;;0.52;;
71095;SDS011;58753;49.440;11.126;2022-09-17T00:16:40;3.55;;;0.50;;
71095;SDS011;58753;49.440;11.126;2022-09-17T00:37:33;1.48;;;0.40;;
71095;SDS011;58753;49.440;11.126;2022-09-17T00:39:58;2.90;;;0.70;;
71095;SDS011;58753;49.440;11.126;2022-09-17T00:42:23;2.67;;;0.60;;
71095;SDS011;58753;49.440;11.126;2022-09-17T00:44:50;1.80;;;0.70;;
71095;SDS011;58753;49.440;11.126;2022-09-17T00:47:26;2.72;;;0.73;;
71095;SDS011;58753;49.440;11.126;2022-09-17T00:53:02;2.10;;;0.70;;
71095;SDS011;58753;49.440;11.126;2022-09-17T00:55:37;1.92;;;0.70;;
71095;SDS011;58753;49.440;11.126;2022-09-17T00:58:07;3.17;;;1.13;;
71095;SDS011;58753;49.440;11.126;2022-09-17T01:00:35;2.80;;;1.10;;
71095;SDS011;58753;49.440;11.126;2022-09-17T01:16:27;5.30;;;1.45;;
71095;SDS011;58753;49.440;11.126;2022-09-17T01:29:53;5.00;;;2.30;;
71095;SDS011;58753;49.440;11.126;2022-09-17T01:32:25;4.97;;;2.25;;
71095;SDS011;58753;49.440;11.126;2022-09-17T01:48:19;8.13;;;2.67;;
71095;SDS011;58753;49.440;11.126;2022-09-17T01:55:38;6.38;;;2.20;;
71095;SDS011;58753;49.440;11.126;2022-09-17T02:03:41;5.38;;;2.22;;
71095;SDS011;58753;49.440;11.126;2022-09-17T02:06:18;8.32;;;1.90;;
71095;SDS011;58753;49.440;11.126;2022-09-17T02:08:50;4.17;;;2.07;;
71095;SDS011;58753;49.440;11.126;2022-09-17T02:24:37;6.73;;;1.70;;
71095;SDS011;58753;49.440;11.126;2022-09-17T02:32:09;6.78;;;2.40;;
71095;SDS011;58753;49.440;11.126;2022-09-17T02:37:00;4.07;;;1.20;;
71095;SDS011;58753;49.440;11.126;2022-09-17T02:39:27;4.10;;;1.87;;
71095;SDS011;58753;49.440;11.126;2022-09-17T02:54:34;4.07;;;1.52;;
71095;SDS011;58753;49.440;11.126;2022-09-17T02:57:16;8.45;;;1.83;;
71095;SDS011;58753;49.440;11.126;2022-09-17T03:05:20;5.00;;;2.10;;
71095;SDS011;58753;49.440;11.126;2022-09-17T03:07:47;9.77;;;2.00;;
71095;SDS011;58753;49.440;11.126;2022-09-17T03:18:16;4.72;;;1.65;;
71095;SDS011;58753;49.440;11.126;2022-09-17T03:20:41;8.37;;;2.13;;
71095;SDS011;58753;49.440;11.126;2022-09-17T03:23:07;5.40;;;1.73;;
71095;SDS011;58753;49.440;11.126;2022-09-17T03:25:32;5.80;;;1.43;;
71095;SDS011;58753;49.440;11.126;2022-09-17T03:31:27;5.57;;;1.63;;
71095;SDS011;58753;49.440;11.126;2022-09-17T03:33:53;3.95;;;2.10;;
71095;SDS011;58753;49.440;11.126;2022-09-17T03:36:18;6.38;;;2.22;;
71095;SDS011;58753;49.440;11.126;2022-09-17T03:38:44;10.67;;;2.13;;
71095;SDS011;58753;49.440;11.126;2022-09-17T03:41:09;4.57;;;1.50;;
71095;SDS011;58753;49.440;11.126;2022-09-17T03:43:35;4.50;;;1.80;;
71095;SDS011;58753;49.440;11.126;2022-09-17T03:46:00;4.70;;;1.77;;
71095;SDS011;58753;49.440;11.126;2022-09-17T03:48:26;5.83;;;1.70;;
71095;SDS011;58753;49.440;11.126;2022-09-17T04:01:05;5.45;;;1.23;;
71095;SDS011;58753;49.440;11.126;2022-09-17T04:09:25;3.53;;;1.40;;
71095;SDS011;58753;49.440;11.126;2022-09-17T04:11:50;7.53;;;1.65;;
71095;SDS011;58753;49.440;11.126;2022-09-17T04:14:16;3.40;;;2.03;;
71095;SDS011;58753;49.440;11.126;2022-09-17T04:16:41;5.87;;;1.40;;
71095;SDS011;58753;49.440;11.126;2022-09-17T04:19:06;3.97;;;1.17;;
71095;SDS011;58753;49.440;11.126;2022-09-17T04:21:32;5.15;;;0.82;;
71095;SDS011;58753;49.440;11.126;2022-09-17T04:23:57;9.03;;;1.10;;
71095;SDS011;58753;49.440;11.126;2022-09-17T04:26:23;5.75;;;1.63;;
71095;SDS011;58753;49.440;11.126;2022-09-17T04:41:27;3.63;;;0.88;;
71095;SDS011;58753;49.440;11.126;2022-09-17T04:43:52;3.20;;;0.70;;
71095;SDS011;58753;49.440;11.126;2022-09-17T04:46:18;6.77;;;1.80;;
71095;SDS011;58753;49.440;11.126;2022-09-17T04:48:43;10.57;;;1.33;;
71095;SDS011;58753;49.440;11.126;2022-09-17T04:51:09;5.43;;;1.13;;
71095;SDS011;58753;49.440;11.126;2022-09-17T05:02:36;4.40;;;1.08;;
71095;SDS011;58753;49.440;11.126;2022-09-17T05:07:26;5.03;;;1.30;;
71095;SDS011;58753;49.440;11.126;2022-09-17T05:14:50;7.90;;;1.40;;
71095;SDS011;58753;49.440;11.126;2022-09-17T05:19:40;8.70;;;1.42;;
71095;SDS011;58753;49.440;11.126;2022-09-17T05:22:06;10.40;;;1.77;;
71095;SDS011;58753;49.440;11.126;2022-09-17T05:24:31;6.63;;;1.10;;
71095;SDS011;58753;49.440;11.126;2022-09-17T05:29:22;6.38;;;0.90;;
71095;SDS011;58753;49.440;11.126;2022-09-17T05:31:48;5.03;;;0.73;;
71095;SDS011;58753;49.440;11.126;2022-09-17T05:34:13;2.77;;;0.70;;
71095;SDS011;58753;49.440;11.126;2022-09-17T05:36:38;4.22;;;0.95;;
71095;SDS011;58753;49.440;11.126;2022-09-17T05:39:04;3.67;;;0.57;;
71095;SDS011;58753;49.440;11.126;2022-09-17T05:41:29;4.43;;;1.10;;
71095;SDS011;58753;49.440;11.126;2022-09-17T05:43:54;8.13;;;1.50;;
71095;SDS011;58753;49.440;11.126;2022-09-17T05:46:20;5.00;;;1.03;;
71095;SDS011;58753;49.440;11.126;2022-09-17T05:48:45;8.88;;;1.42;;
71095;SDS011;58753;49.440;11.126;2022-09-17T05:51:10;4.03;;;0.70;;
71095;SDS011;58753;49.440;11.126;2022-09-17T05:53:36;1.30;;;0.57;;
71095;SDS011;58753;49.440;11.126;2022-09-17T05:56:02;2.33;;;0.80;;
71095;SDS011;58753;49.440;11.126;2022-09-17T05:58:27;1.00;;;0.40;;
71095;SDS011;58753;49.440;11.126;2022-09-17T06:00:53;2.42;;;0.50;;
71095;SDS011;58753;49.440;11.126;2022-09-17T06:03:19;2.77;;;0.80;;
71095;SDS011;58753;49.440;11.126;2022-09-17T06:05:56;2.53;;;0.70;;
71095;SDS011;58753;49.440;11.126;2022-09-17T06:08:23;3.53;;;0.53;;
71095;SDS011;58753;49.440;11.126;2022-09-17T06:10:49;4.68;;;0.60;;
71095;SDS011;58753;49.440;11.126;2022-09-17T06:13:16;4.30;;;0.97;;
71095;SDS011;58753;49.440;11.126;2022-09-17T06:15:42;2.30;;;0.77;;
71095;SDS011;58753;49.440;11.126;2022-09-17T06:18:13;6.90;;;0.55;;
71095;SDS011;58753;49.440;11.126;2022-09-17T06:20:38;0.53;;;0.33;;
71095;SDS011;58753;49.440;11.126;2022-09-17T06:23:03;2.87;;;0.40;;
71095;SDS011;58753;49.440;11.126;2022-09-17T06:25:29;1.13;;;0.43;;
71095;SDS011;58753;49.440;11.126;2022-09-17T06:27:55;3.70;;;0.60;;
71095;SDS011;58753;49.440;11.126;2022-09-17T06:36:50;1.63;;;0.30;;
71095;SDS011;58753;49.440;11.126;2022-09-17T06:39:15;3.73;;;0.70;;
71095;SDS011;58753;49.440;11.126;2022-09-17T06:41:41;4.68;;;0.98;;
71095;SDS011;58753;49.440;11.126;2022-09-17T06:44:07;3.30;;;0.50;;
71095;SDS011;58753;49.440;11.126;2022-09-17T06:46:32;3.17;;;0.60;;
71095;SDS011;58753;49.440;11.126;2022-09-17T06:48:58;2.40;;;0.60;;
71095;SDS011;58753;49.440;11.126;2022-09-17T06:51:23;1.70;;;0.60;;
71095;SDS011;58753;49.440;11.126;2022-09-17T06:53:49;2.83;;;0.90;;
71095;SDS011;58753;49.440;11.126;2022-09-17T06:56:14;3.23;;;0.67;;
71095;SDS011;58753;49.440;11.126;2022-09-17T06:58:40;3.93;;;0.70;;
71095;SDS011;58753;49.440;11.126;2022-09-17T07:01:06;1.50;;;0.80;;
71095;SDS011;58753;49.440;11.126;2022-09-17T07:03:34;5.10;;;0.90;;
71095;SDS011;58753;49.440;11.126;2022-09-17T07:05:59;4.90;;;1.00;;
71095;SDS011;58753;49.440;11.126;2022-09-17T07:08:25;1.73;;;0.60;;
71095;SDS011;58753;49.440;11.126;2022-09-17T07:10:50;2.25;;;1.00;;
71095;SDS011;58753;49.440;11.126;2022-09-17T07:13:18;1.67;;;0.50;;
71095;SDS011;58753;49.440;11.126;2022-09-17T07:15:50;4.05;;;0.73;;
71095;SDS011;58753;49.440;11.126;2022-09-17T07:18:16;2.40;;;0.90;;
71095;SDS011;58753;49.440;11.126;2022-09-17T07:20:42;0.70;;;0.30;;
71095;SDS011;58753;49.440;11.126;2022-09-17T07:23:07;3.00;;;1.00;;
71095;SDS011;58753;49.440;11.126;2022-09-17T07:25:33;2.93;;;0.97;;
71095;SDS011;58753;49.440;11.126;2022-09-17T07:27:58;5.33;;;1.33;;
71095;SDS011;58753;49.440;11.126;2022-09-17T07:30:23;2.95;;;1.23;;
71095;SDS011;58753;49.440;11.126;2022-09-17T07:32:49;2.50;;;1.37;;
71095;SDS011;58753;49.440;11.126;2022-09-17T07:35:14;2.33;;;0.80;;
71095;SDS011;58753;49.440;11.126;2022-09-17T07:37:40;3.30;;;1.13;;
71095;SDS011;58753;49.440;11.126;2022-09-17T07:40:05;6.90;;;1.17;;
71095;SDS011;58753;49.440;11.126;2022-09-17T07:42:31;4.40;;;1.37;;
71095;SDS011;58753;49.440;11.126;2022-09-17T07:44:58;4.65;;;2.15;;
71095;SDS011;58753;49.440;11.126;2022-09-17T07:47:23;4.27;;;2.20;;
71095;SDS011;58753;49.440;11.126;2022-09-17T07:49:48;6.28;;;2.50;;
71095;SDS011;58753;49.440;11.126;2022-09-17T07:52:14;4.80;;;2.53;;
71095;SDS011;58753;49.440;11.126;2022-09-17T07:54:39;4.20;;;1.17;;
71095;SDS011;58753;49.440;11.126;2022-09-17T07:57:04;5.40;;;2.10;;
71095;SDS011;58753;49.440;11.126;2022-09-17T08:06:30;4.00;;;1.45;;
71095;SDS011;58753;49.440;11.126;2022-09-17T08:09:00;4.88;;;1.55;;
71095;SDS011;58753;49.440;11.126;2022-09-17T08:11:26;6.23;;;2.20;;
71095;SDS011;58753;49.440;11.126;2022-09-17T08:13:53;8.30;;;2.03;;
71095;SDS011;58753;49.440;11.126;2022-09-17T08:16:20;8.40;;;2.33;;
71095;SDS011;58753;49.440;11.126;2022-09-17T08:18:47;10.93;;;4.05;;
71095;SDS011;58753;49.440;11.126;2022-09-17T08:21:14;8.93;;;2.50;;
71095;SDS011;58753;49.440;11.126;2022-09-17T08:23:43;5.25;;;1.75;;
71095;SDS011;58753;49.440;11.126;2022-09-17T08:26:19;6.32;;;1.95;;
71095;SDS011;58753;49.440;11.126;2022-09-17T08:31:19;6.97;;;2.35;;
71095;SDS011;58753;49.440;11.126;2022-09-17T08:33:45;5.07;;;2.07;;
71095;SDS011;58753;49.440;11.126;2022-09-17T08:36:11;5.07;;;1.67;;
71095;SDS011;58753;49.440;11.126;2022-09-17T08:38:38;5.43;;;1.98;;
71095;SDS011;58753;49.440;11.126;2022-09-17T08:44:10;5.90;;;2.45;;
71095;SDS011;58753;49.440;11.126;2022-09-17T08:46:51;8.07;;;2.40;;
71095;SDS011;58753;49.440;11.126;2022-09-17T08:55:12;5.53;;;1.95;;
71095;SDS011;58753;49.440;11.126;2022-09-17T09:10:43;6.57;;;2.00;;
71095;SDS011;58753;49.440;11.126;2022-09-17T09:13:14;4.65;;;1.23;;
71095;SDS011;58753;49.440;11.126;2022-09-17T09:15:43;4.53;;;1.53;;
71095;SDS011;58753;49.440;11.126;2022-09-17T09:18:16;7.65;;;2.50;;
71095;SDS011;58753;49.440;11.126;2022-09-17T09:21:13;6.45;;;2.17;;
71095;SDS011;58753;49.440;11.126;2022-09-17T09:23:55;6.95;;;1.75;;
71095;SDS011;58753;49.440;11.126;2022-09-17T09:26:40;3.53;;;1.52;;
71095;SDS011;58753;49.440;11.126;2022-09-17T09:38:32;5.85;;;1.90;;
71095;SDS011;58753;49.440;11.126;2022-09-17T09:41:10;5.97;;;1.65;;
71095;SDS011;58753;49.440;11.126;2022-09-17T09:43:43;4.80;;;1.57;;
71095;SDS011;58753;49.440;11.126;2022-09-17T09:49:41;5.57;;;1.52;;
71095;SDS011;58753;49.440;11.126;2022-09-17T10:10:19;7.60;;;1.70;;
71095;SDS011;58753;49.440;11.126;2022-09-17T10:12:45;10.48;;;2.13;;
71095;SDS011;58753;49.440;11.126;2022-09-17T10:18:10;3.35;;;1.15;;
71095;SDS011;58753;49.440;11.126;2022-09-17T10:20:49;8.07;;;1.80;;
71095;SDS011;58753;49.440;11.126;2022-09-17T10:23:22;4.60;;;1.80;;
71095;SDS011;58753;49.440;11.126;2022-09-17T10:25:49;6.80;;;2.80;;
71095;SDS011;58753;49.440;11.126;2022-09-17T10:28:25;7.43;;;2.03;;
71095;SDS011;58753;49.440;11.126;2022-09-17T10:30:56;9.38;;;2.45;;
71095;SDS011;58753;49.440;11.126;2022-09-17T10:33:27;7.30;;;1.58;;
71095;SDS011;58753;49.440;11.126;2022-09-17T10:36:00;7.82;;;2.50;;
71095;SDS011;58753;49.440;11.126;2022-09-17T10:38:46;16.70;;;2.33;;
71095;SDS011;58753;49.440;11.126;2022-09-17T10:41:13;8.83;;;1.90;;
71095;SDS011;58753;49.440;11.126;2022-09-17T10:43:39;6.20;;;1.90;;
71095;SDS011;58753;49.440;11.126;2022-09-17T10:46:07;5.93;;;1.67;;
71095;SDS011;58753;49.440;11.126;2022-09-17T10:48:39;9.43;;;1.95;;
71095;SDS011;58753;49.440;11.126;2022-09-17T10:51:08;7.07;;;1.63;;
71095;SDS011;58753;49.440;11.126;2022-09-17T10:56:35;8.10;;;1.85;;
71095;SDS011;58753;49.440;11.126;2022-09-17T11:10:29;3.55;;;1.52;;
71095;SDS011;58753;49.440;11.126;2022-09-17T11:13:18;5.95;;;1.58;;
71095;SDS011;58753;49.440;11.126;2022-09-17T11:16:01;5.55;;;1.48;;
71095;SDS011;58753;49.440;11.126;2022-09-17T11:18:34;4.15;;;1.70;;
71095;SDS011;58753;49.440;11.126;2022-09-17T11:21:07;5.20;;;1.60;;
71095;SDS011;58753;49.440;11.126;2022-09-17T11:26:31;5.85;;;1.88;;
71095;SDS011;58753;49.440;11.126;2022-09-17T11:40:45;4.85;;;1.25;;
71095;SDS011;58753;49.440;11.126;2022-09-17T11:48:53;4.70;;;0.87;;
71095;SDS011;58753;49.440;11.126;2022-09-17T11:54:23;6.50;;;1.55;;
71095;SDS011;58753;49.440;11.126;2022-09-17T12:02:37;5.90;;;1.47;;
71095;SDS011;58753;49.440;11.126;2022-09-17T12:05:17;5.93;;;1.70;;
71095;SDS011;58753;49.440;11.126;2022-09-17T12:12:58;11.63;;;1.75;;
71095;SDS011;58753;49.440;11.126;2022-09-17T12:15:53;4.38;;;1.30;;
71095;SDS011;58753;49.440;11.126;2022-09-17T12:21:08;9.37;;;2.13;;
71095;SDS011;58753;49.440;11.126;2022-09-17T12:23:40;5.45;;;1.42;;
71095;SDS011;58753;49.440;11.126;2022-09-17T12:40:50;9.02;;;2.97;;
71095;SDS011;58753;49.440;11.126;2022-09-17T12:51:54;6.78;;;1.40;;
71095;SDS011;58753;49.440;11.126;2022-09-17T13:00:25;6.38;;;2.50;;
71095;SDS011;58753;49.440;11.126;2022-09-17T13:03:02;4.13;;;1.73;;
71095;SDS011;58753;49.440;11.126;2022-09-17T13:08:23;4.93;;;1.70;;
71095;SDS011;58753;49.440;11.126;2022-09-17T13:21:59;5.35;;;1.30;;
71095;SDS011;58753;49.440;11.126;2022-09-17T13:24:31;3.80;;;0.93;;
71095;SDS011;58753;49.440;11.126;2022-09-17T13:26:58;2.95;;;1.23;;
71095;SDS011;58753;49.440;11.126;2022-09-17T13:30:11;6.33;;;1.50;;
71095;SDS011;58753;49.440;11.126;2022-09-17T13:37:34;4.93;;;0.57;;
71095;SDS011;58753;49.440;11.126;2022-09-17T13:40:26;2.88;;;0.43;;
71095;SDS011;58753;49.440;11.126;2022-09-17T13:43:12;1.37;;;0.30;;
71095;SDS011;58753;49.440;11.126;2022-09-17T13:48:25;2.05;;;0.50;;
71095;SDS011;58753;49.440;11.126;2022-09-17T13:50:52;1.38;;;0.43;;
71095;SDS011;58753;49.440;11.126;2022-09-17T13:53:26;1.97;;;0.50;;
71095;SDS011;58753;49.440;11.126;2022-09-17T13:55:52;3.58;;;0.45;;
71095;SDS011;58753;49.440;11.126;2022-09-17T13:58:21;2.53;;;0.52;;
71095;SDS011;58753;49.440;11.126;2022-09-17T14:14:32;1.63;;;0.80;;
71095;SDS011;58753;49.440;11.126;2022-09-17T14:30:04;4.23;;;0.97;;
71095;SDS011;58753;49.440;11.126;2022-09-17T14:48:15;2.47;;;0.90;;
71095;SDS011;58753;49.440;11.126;2022-09-17T14:50:42;7.25;;;1.23;;
71095;SDS011;58753;49.440;11.126;2022-09-17T14:53:11;2.53;;;1.37;;
71095;SDS011;58753;49.440;11.126;2022-09-17T14:58:50;6.07;;;1.53;;
71095;SDS011;58753;49.440;11.126;2022-09-17T15:01:29;3.63;;;1.23;;
71095;SDS011;58753;49.440;11.126;2022-09-17T15:06:39;4.72;;;1.00;;
71095;SDS011;58753;49.440;11.126;2022-09-17T15:09:13;3.88;;;1.30;;
71095;SDS011;58753;49.440;11.126;2022-09-17T15:11:40;5.13;;;1.30;;
71095;SDS011;58753;49.440;11.126;2022-09-17T15:14:19;3.58;;;1.23;;
71095;SDS011;58753;49.440;11.126;2022-09-17T15:16:50;4.18;;;1.10;;
71095;SDS011;58753;49.440;11.126;2022-09-17T15:19:20;4.20;;;0.95;;
71095;SDS011;58753;49.440;11.126;2022-09-17T15:21:50;2.95;;;0.98;;
71095;SDS011;58753;49.440;11.126;2022-09-17T15:27:08;3.03;;;1.00;;
71095;SDS011;58753;49.440;11.126;2022-09-17T15:29:36;4.30;;;1.00;;
71095;SDS011;58753;49.440;11.126;2022-09-17T15:32:04;3.72;;;0.80;;
71095;SDS011;58753;49.440;11.126;2022-09-17T15:34:30;5.97;;;1.20;;
71095;SDS011;58753;49.440;11.126;2022-09-17T15:39:29;2.90;;;1.13;;
71095;SDS011;58753;49.440;11.126;2022-09-17T15:42:03;4.25;;;1.48;;
71095;SDS011;58753;49.440;11.126;2022-09-17T15:44:29;4.90;;;1.07;;
71095;SDS011;58753;49.440;11.126;2022-09-17T15:46:54;7.18;;;1.40;;
71095;SDS011;58753;49.440;11.126;2022-09-17T15:49:29;4.72;;;0.93;;
71095;SDS011;58753;49.440;11.126;2022-09-17T15:52:24;3.23;;;1.10;;
71095;SDS011;58753;49.440;11.126;2022-09-17T15:57:58;2.45;;;0.80;;
71095;SDS011;58753;49.440;11.126;2022-09-17T16:00:25;3.35;;;1.10;;
71095;SDS011;58753;49.440;11.126;2022-09-17T16:02:50;4.90;;;0.90;;
71095;SDS011;58753;49.440;11.126;2022-09-17T16:07:43;4.20;;;0.90;;
71095;SDS011;58753;49.440;11.126;2022-09-17T16:10:10;3.83;;;0.70;;
71095;SDS011;58753;49.440;11.126;2022-09-17T16:12:36;3.22;;;0.70;;
71095;SDS011;58753;49.440;11.126;2022-09-17T16:15:02;3.53;;;0.80;;
71095;SDS011;58753;49.440;11.126;2022-09-17T16:20:05;6.80;;;0.95;;
71095;SDS011;58753;49.440;11.126;2022-09-17T16:22:41;3.30;;;0.75;;
71095;SDS011;58753;49.440;11.126;2022-09-17T16:25:07;2.65;;;0.63;;
71095;SDS011;58753;49.440;11.126;2022-09-17T16:27:55;3.47;;;0.83;;
71095;SDS011;58753;49.440;11.126;2022-09-17T16:30:23;4.05;;;0.68;;
71095;SDS011;58753;49.440;11.126;2022-09-17T16:32:49;4.28;;;0.90;;
71095;SDS011;58753;49.440;11.126;2022-09-17T16:35:20;4.20;;;0.85;;
71095;SDS011;58753;49.440;11.126;2022-09-17T16:37:47;2.03;;;0.60;;
71095;SDS011;58753;49.440;11.126;2022-09-17T16:40:13;4.60;;;1.05;;
71095;SDS011;58753;49.440;11.126;2022-09-17T16:42:39;2.07;;;0.40;;
71095;SDS011;58753;49.440;11.126;2022-09-17T16:45:04;10.88;;;3.80;;
71095;SDS011;58753;49.440;11.126;2022-09-17T16:47:34;5.72;;;1.10;;
71095;SDS011;58753;49.440;11.126;2022-09-17T16:50:02;4.57;;;1.80;;
71095;SDS011;58753;49.440;11.126;2022-09-17T16:52:28;4.63;;;0.80;;
71095;SDS011;58753;49.440;11.126;2022-09-17T16:54:54;2.57;;;1.00;;
71095;SDS011;58753;49.440;11.126;2022-09-17T16:59:45;2.90;;;0.70;;
71095;SDS011;58753;49.440;11.126;2022-09-17T17:02:10;4.77;;;1.07;;
71095;SDS011;58753;49.440;11.126;2022-09-17T17:04:35;2.20;;;0.63;;
71095;SDS011;58753;49.440;11.126;2022-09-17T17:07:01;1.30;;;0.40;;
71095;SDS011;58753;49.440;11.126;2022-09-17T17:21:16;4.00;;;1.05;;
71095;SDS011;58753;49.440;11.126;2022-09-17T17:23:42;1.83;;;0.40;;
71095;SDS011;58753;49.440;11.126;2022-09-17T17:26:07;2.28;;;0.70;;
71095;SDS011;58753;49.440;11.126;2022-09-17T17:28:33;2.17;;;0.90;;
71095;SDS011;58753;49.440;11.126;2022-09-17T17:31:00;3.70;;;1.00;;
71095;SDS011;58753;49.440;11.126;2022-09-17T17:33:26;7.10;;;1.15;;
71095;SDS011;58753;49.440;11.126;2022-09-17T17:35:52;3.30;;;0.70;;
71095;SDS011;58753;49.440;11.126;2022-09-17T17:38:17;2.73;;;0.70;;
71095;SDS011;58753;49.440;11.126;2022-09-17T17:40:43;2.23;;;0.47;;
71095;SDS011;58753;49.440;11.126;2022-09-17T17:43:09;2.15;;;0.55;;
71095;SDS011;58753;49.440;11.126;2022-09-17T17:45:35;3.95;;;1.08;;
71095;SDS011;58753;49.440;11.126;2022-09-17T17:48:01;2.70;;;0.70;;
71095;SDS011;58753;49.440;11.126;2022-09-17T17:50:27;1.93;;;0.53;;
71095;SDS011;58753;49.440;11.126;2022-09-17T17:52:53;7.70;;;1.30;;
71095;SDS011;58753;49.440;11.126;2022-09-17T17:55:19;3.95;;;0.73;;
71095;SDS011;58753;49.440;11.126;2022-09-17T17:57:44;3.00;;;0.50;;
71095;SDS011;58753;49.440;11.126;2022-09-17T18:00:10;9.03;;;1.10;;
71095;SDS011;58753;49.440;11.126;2022-09-17T18:05:02;4.57;;;0.67;;
71095;SDS011;58753;49.440;11.126;2022-09-17T18:07:27;3.80;;;1.20;;
71095;SDS011;58753;49.440;11.126;2022-09-17T18:09:53;4.18;;;1.30;;
71095;SDS011;58753;49.440;11.126;2022-09-17T18:12:18;5.37;;;1.00;;
71095;SDS011;58753;49.440;11.126;2022-09-17T18:14:44;2.93;;;1.20;;
71095;SDS011;58753;49.440;11.126;2022-09-17T18:17:09;4.07;;;1.53;;
71095;SDS011;58753;49.440;11.126;2022-09-17T18:19:34;6.20;;;1.30;;
71095;SDS011;58753;49.440;11.126;2022-09-17T18:28:59;4.43;;;1.13;;
71095;SDS011;58753;49.440;11.126;2022-09-17T18:31:26;3.30;;;0.70;;
71095;SDS011;58753;49.440;11.126;2022-09-17T18:34:00;3.33;;;0.75;;
71095;SDS011;58753;49.440;11.126;2022-09-17T18:36:28;3.17;;;0.90;;
71095;SDS011;58753;49.440;11.126;2022-09-17T18:49:57;3.47;;;1.00;;
71095;SDS011;58753;49.440;11.126;2022-09-17T18:52:23;5.37;;;0.90;;
71095;SDS011;58753;49.440;11.126;2022-09-17T18:54:48;3.90;;;1.10;;
71095;SDS011;58753;49.440;11.126;2022-09-17T18:57:14;6.70;;;0.90;;
71095;SDS011;58753;49.440;11.126;2022-09-17T18:59:39;2.58;;;0.95;;
71095;SDS011;58753;49.440;11.126;2022-09-17T19:02:05;2.97;;;1.10;;
71095;SDS011;58753;49.440;11.126;2022-09-17T19:04:30;4.57;;;1.33;;
71095;SDS011;58753;49.440;11.126;2022-09-17T19:06:56;3.57;;;1.33;;
71095;SDS011;58753;49.440;11.126;2022-09-17T19:09:21;7.57;;;1.43;;
71095;SDS011;58753;49.440;11.126;2022-09-17T19:11:47;4.57;;;1.65;;
71095;SDS011;58753;49.440;11.126;2022-09-17T19:14:12;1.33;;;0.57;;
71095;SDS011;58753;49.440;11.126;2022-09-17T19:16:37;3.20;;;1.00;;
71095;SDS011;58753;49.440;11.126;2022-09-17T19:19:03;2.30;;;1.00;;
71095;SDS011;58753;49.440;11.126;2022-09-17T19:21:28;2.50;;;0.97;;
71095;SDS011;58753;49.440;11.126;2022-09-17T19:23:54;6.77;;;3.20;;
71095;SDS011;58753;49.440;11.126;2022-09-17T19:26:24;1.97;;;0.80;;
71095;SDS011;58753;49.440;11.126;2022-09-17T19:28:51;4.43;;;1.08;;
71095;SDS011;58753;49.440;11.126;2022-09-17T19:31:21;3.22;;;1.02;;
71095;SDS011;58753;49.440;11.126;2022-09-17T19:33:48;4.45;;;1.15;;
71095;SDS011;58753;49.440;11.126;2022-09-17T19:36:16;4.20;;;1.23;;
71095;SDS011;58753;49.440;11.126;2022-09-17T19:38:42;5.82;;;1.40;;
71095;SDS011;58753;49.440;11.126;2022-09-17T19:41:12;2.80;;;1.00;;
71095;SDS011;58753;49.440;11.126;2022-09-17T19:43:39;7.68;;;1.80;;
71095;SDS011;58753;49.440;11.126;2022-09-17T19:48:30;4.18;;;1.17;;
71095;SDS011;58753;49.440;11.126;2022-09-17T19:50:56;5.33;;;1.57;;
71095;SDS011;58753;49.440;11.126;2022-09-17T19:53:22;6.97;;;2.10;;
71095;SDS011;58753;49.440;11.126;2022-09-17T19:55:48;4.00;;;1.40;;
71095;SDS011;58753;49.440;11.126;2022-09-17T19:58:13;3.45;;;1.30;;
71095;SDS011;58753;49.440;11.126;2022-09-17T20:00:39;5.20;;;1.13;;
71095;SDS011;58753;49.440;11.126;2022-09-17T20:03:05;4.65;;;1.10;;
71095;SDS011;58753;49.440;11.126;2022-09-17T20:05:31;4.05;;;1.00;;
71095;SDS011;58753;49.440;11.126;2022-09-17T20:07:58;5.33;;;0.83;;
71095;SDS011;58753;49.440;11.126;2022-09-17T20:10:24;4.75;;;0.90;;
71095;SDS011;58753;49.440;11.126;2022-09-17T20:12:49;2.22;;;0.60;;
71095;SDS011;58753;49.440;11.126;2022-09-17T20:15:15;3.80;;;0.90;;
71095;SDS011;58753;49.440;11.126;2022-09-17T20:17:40;3.17;;;0.97;;
71095;SDS011;58753;49.440;11.126;2022-09-17T20:20:06;1.73;;;0.70;;
71095;SDS011;58753;49.440;11.126;2022-09-17T20:22:31;3.00;;;0.80;;
71095;SDS011;58753;49.440;11.126;2022-09-17T20:24:57;2.65;;;0.95;;
71095;SDS011;58753;49.440;11.126;2022-09-17T20:27:22;4.27;;;1.20;;
71095;SDS011;58753;49.440;11.126;2022-09-17T20:29:48;3.10;;;0.70;;
71095;SDS011;58753;49.440;11.126;2022-09-17T20:32:13;3.40;;;0.60;;
71095;SDS011;58753;49.440;11.126;2022-09-17T20:34:39;2.33;;;0.80;;
71095;SDS011;58753;49.440;11.126;2022-09-17T20:39:30;0.77;;;0.63;;
71095;SDS011;58753;49.440;11.126;2022-09-17T20:41:55;2.47;;;0.93;;
71095;SDS011;58753;49.440;11.126;2022-09-17T20:47:19;7.90;;;2.40;;
71095;SDS011;58753;49.440;11.126;2022-09-17T20:49:44;1.53;;;0.63;;
71095;SDS011;58753;49.440;11.126;2022-09-17T20:52:10;3.17;;;0.60;;
71095;SDS011;58753;49.440;11.126;2022-09-17T20:54:35;0.80;;;0.40;;
71095;SDS011;58753;49.440;11.126;2022-09-17T20:57:00;2.23;;;0.53;;
71095;SDS011;58753;49.440;11.126;2022-09-17T20:59:26;1.57;;;0.47;;
71095;SDS011;58753;49.440;11.126;2022-09-17T21:02:10;2.80;;;0.38;;
71095;SDS011;58753;49.440;11.126;2022-09-17T21:04:37;2.72;;;0.50;;
71095;SDS011;58753;49.440;11.126;2022-09-17T21:07:02;2.40;;;0.20;;
71095;SDS011;58753;49.440;11.126;2022-09-17T21:09:28;1.87;;;0.40;;
71095;SDS011;58753;49.440;11.126;2022-09-17T21:11:53;2.60;;;0.53;;
71095;SDS011;58753;49.440;11.126;2022-09-17T21:14:19;2.42;;;0.60;;
71095;SDS011;58753;49.440;11.126;2022-09-17T21:16:45;3.53;;;0.47;;
71095;SDS011;58753;49.440;11.126;2022-09-17T21:19:11;1.83;;;0.63;;
71095;SDS011;58753;49.440;11.126;2022-09-17T21:21:37;1.35;;;0.50;;
71095;SDS011;58753;49.440;11.126;2022-09-17T21:24:03;2.90;;;0.70;;
71095;SDS011;58753;49.440;11.126;2022-09-17T21:38:20;4.43;;;0.80;;
71095;SDS011;58753;49.440;11.126;2022-09-17T21:40:56;5.82;;;2.17;;
71095;SDS011;58753;49.440;11.126;2022-09-17T21:43:26;4.30;;;0.57;;
71095;SDS011;58753;49.440;11.126;2022-09-17T21:45:59;4.78;;;0.80;;
71095;SDS011;58753;49.440;11.126;2022-09-17T21:48:26;5.47;;;2.00;;
71095;SDS011;58753;49.440;11.126;2022-09-17T21:50:52;2.00;;;0.40;;
71095;SDS011;58753;49.440;11.126;2022-09-17T21:53:18;3.17;;;0.82;;
71095;SDS011;58753;49.440;11.126;2022-09-17T21:55:43;2.63;;;0.60;;
71095;SDS011;58753;49.440;11.126;2022-09-17T21:58:09;1.53;;;0.43;;
71095;SDS011;58753;49.440;11.126;2022-09-17T22:00:34;3.20;;;0.50;;
71095;SDS011;58753;49.440;11.126;2022-09-17T22:03:01;1.80;;;0.53;;
71095;SDS011;58753;49.440;11.126;2022-09-17T22:05:26;1.73;;;0.43;;
71095;SDS011;58753;49.440;11.126;2022-09-17T22:21:20;4.63;;;0.63;;
71095;SDS011;58753;49.440;11.126;2022-09-17T22:23:51;2.25;;;0.80;;
71095;SDS011;58753;49.440;11.126;2022-09-17T22:26:18;3.70;;;0.85;;
71095;SDS011;58753;49.440;11.126;2022-09-17T22:40:51;2.47;;;0.57;;
71095;SDS011;58753;49.440;11.126;2022-09-17T22:43:19;4.05;;;1.02;;
71095;SDS011;58753;49.440;11.126;2022-09-17T22:45:44;2.65;;;0.77;;